sensor_id;sensor_type;location;lat;lon;timestamp;temperature;humidity
61765;DHT22;50188;48.114;-1.388;2022-10-16T00:01:12;15.50;99.20
61765;DHT22;50188;48.114;-1.388;2022-10-16T00:03:39;15.50;99.30
61765;DHT22;50188;48.114;-1.388;2022-10-16T00:06:05;15.50;99.30
61765;DHT22;50188;48.114;-1.388;2022-10-16T00:08:32;15.50;99.30
61765;DHT22;50188;48.114;-1.388;2022-10-16T00:11:03;15.50;99.50
61765;DHT22;50188;48.114;-1.388;2022-10-16T00:13:31;15.50;99.50
61765;DHT22;50188;48.114;-1.388;2022-10-16T00:15:58;15.50;99.60
61765;DHT22;50188;48.114;-1.388;2022-10-16T00:18:25;15.50;99.50
61765;DHT22;50188;48.114;-1.388;2022-10-16T00:20:51;15.50;99.50
61765;DHT22;50188;48.114;-1.388;2022-10-16T00:23:17;15.50;99.60
61765;DHT22;50188;48.114;-1.388;2022-10-16T00:25:43;15.50;99.60
61765;DHT22;50188;48.114;-1.388;2022-10-16T00:28:08;15.60;99.60
61765;DHT22;50188;48.114;-1.388;2022-10-16T00:30:37;15.60;99.60
61765;DHT22;50188;48.114;-1.388;2022-10-16T00:33:02;15.60;99.60
61765;DHT22;50188;48.114;-1.388;2022-10-16T00:35:28;15.60;99.70
61765;DHT22;50188;48.114;-1.388;2022-10-16T00:37:54;15.60;99.70
61765;DHT22;50188;48.114;-1.388;2022-10-16T00:40:20;15.60;99.80
61765;DHT22;50188;48.114;-1.388;2022-10-16T00:42:45;15.60;99.80
61765;DHT22;50188;48.114;-1.388;2022-10-16T00:45:11;15.60;99.80
61765;DHT22;50188;48.114;-1.388;2022-10-16T00:47:42;15.60;99.80
61765;DHT22;50188;48.114;-1.388;2022-10-16T00:50:31;15.60;99.90
61765;DHT22;50188;48.114;-1.388;2022-10-16T00:52:58;15.60;99.90
61765;DHT22;50188;48.114;-1.388;2022-10-16T00:55:26;15.60;99.90
61765;DHT22;50188;48.114;-1.388;2022-10-16T00:57:53;15.50;99.90
61765;DHT22;50188;48.114;-1.388;2022-10-16T01:00:22;15.60;99.90
61765;DHT22;50188;48.114;-1.388;2022-10-16T01:02:55;15.60;99.90
61765;DHT22;50188;48.114;-1.388;2022-10-16T01:05:24;15.60;99.90
61765;DHT22;50188;48.114;-1.388;2022-10-16T01:08:09;15.50;99.90
61765;DHT22;50188;48.114;-1.388;2022-10-16T01:10:43;15.50;99.90
61765;DHT22;50188;48.114;-1.388;2022-10-16T01:13:18;15.50;99.90
61765;DHT22;50188;48.114;-1.388;2022-10-16T01:16:05;15.50;99.90
61765;DHT22;50188;48.114;-1.388;2022-10-16T01:18:58;15.50;99.90
61765;DHT22;50188;48.114;-1.388;2022-10-16T01:21:29;15.50;99.90
61765;DHT22;50188;48.114;-1.388;2022-10-16T01:24:12;15.40;99.90
61765;DHT22;50188;48.114;-1.388;2022-10-16T01:27:05;15.50;99.90
61765;DHT22;50188;48.114;-1.388;2022-10-16T01:29:45;15.40;99.90
61765;DHT22;50188;48.114;-1.388;2022-10-16T01:32:33;15.40;99.90
61765;DHT22;50188;48.114;-1.388;2022-10-16T01:35:30;15.40;99.90
61765;DHT22;50188;48.114;-1.388;2022-10-16T01:38:08;15.40;99.90
61765;DHT22;50188;48.114;-1.388;2022-10-16T01:40:38;15.40;99.90
61765;DHT22;50188;48.114;-1.388;2022-10-16T01:43:08;15.40;99.90
61765;DHT22;50188;48.114;-1.388;2022-10-16T01:45:36;15.40;99.90
61765;DHT22;50188;48.114;-1.388;2022-10-16T01:48:05;15.40;99.90
61765;DHT22;50188;48.114;-1.388;2022-10-16T01:50:36;15.40;99.90
61765;DHT22;50188;48.114;-1.388;2022-10-16T01:53:03;15.40;99.90
61765;DHT22;50188;48.114;-1.388;2022-10-16T01:55:36;15.40;99.90
61765;DHT22;50188;48.114;-1.388;2022-10-16T01:58:05;15.40;99.90
61765;DHT22;50188;48.114;-1.388;2022-10-16T02:00:32;15.40;99.90
61765;DHT22;50188;48.114;-1.388;2022-10-16T02:03:01;15.40;99.90
61765;DHT22;50188;48.114;-1.388;2022-10-16T02:05:32;15.40;99.90
61765;DHT22;50188;48.114;-1.388;2022-10-16T02:07:59;15.40;99.90
61765;DHT22;50188;48.114;-1.388;2022-10-16T02:10:25;15.40;99.90
61765;DHT22;50188;48.114;-1.388;2022-10-16T02:12:58;15.40;99.90
61765;DHT22;50188;48.114;-1.388;2022-10-16T02:15:24;15.40;99.90
61765;DHT22;50188;48.114;-1.388;2022-10-16T02:17:50;15.40;99.90
61765;DHT22;50188;48.114;-1.388;2022-10-16T02:20:16;15.40;99.90
61765;DHT22;50188;48.114;-1.388;2022-10-16T02:22:47;15.30;99.90
61765;DHT22;50188;48.114;-1.388;2022-10-16T02:25:29;15.40;99.90
61765;DHT22;50188;48.114;-1.388;2022-10-16T02:28:07;15.30;99.90
61765;DHT22;50188;48.114;-1.388;2022-10-16T02:30:42;15.30;99.90
61765;DHT22;50188;48.114;-1.388;2022-10-16T02:33:10;15.30;99.90
61765;DHT22;50188;48.114;-1.388;2022-10-16T02:35:39;15.30;99.90
61765;DHT22;50188;48.114;-1.388;2022-10-16T02:38:06;15.30;99.90
61765;DHT22;50188;48.114;-1.388;2022-10-16T02:40:32;15.20;99.90
61765;DHT22;50188;48.114;-1.388;2022-10-16T02:42:57;15.30;99.90
61765;DHT22;50188;48.114;-1.388;2022-10-16T02:45:23;15.20;99.90
61765;DHT22;50188;48.114;-1.388;2022-10-16T02:47:49;15.20;99.90
61765;DHT22;50188;48.114;-1.388;2022-10-16T02:50:15;15.20;99.90
61765;DHT22;50188;48.114;-1.388;2022-10-16T02:52:41;15.20;99.90
61765;DHT22;50188;48.114;-1.388;2022-10-16T02:55:07;15.30;99.90
61765;DHT22;50188;48.114;-1.388;2022-10-16T02:57:33;15.30;99.90
61765;DHT22;50188;48.114;-1.388;2022-10-16T02:59:58;15.30;99.90
61765;DHT22;50188;48.114;-1.388;2022-10-16T03:02:24;15.30;99.90
61765;DHT22;50188;48.114;-1.388;2022-10-16T03:04:50;15.30;99.90
61765;DHT22;50188;48.114;-1.388;2022-10-16T03:07:15;15.30;99.90
61765;DHT22;50188;48.114;-1.388;2022-10-16T03:09:41;15.30;99.90
61765;DHT22;50188;48.114;-1.388;2022-10-16T03:12:07;15.30;99.90
61765;DHT22;50188;48.114;-1.388;2022-10-16T03:14:33;15.30;99.90
61765;DHT22;50188;48.114;-1.388;2022-10-16T03:16:58;15.30;99.90
61765;DHT22;50188;48.114;-1.388;2022-10-16T03:19:24;15.30;99.90
61765;DHT22;50188;48.114;-1.388;2022-10-16T03:21:50;15.30;99.90
61765;DHT22;50188;48.114;-1.388;2022-10-16T03:24:15;15.30;99.90
61765;DHT22;50188;48.114;-1.388;2022-10-16T03:26:41;15.30;99.90
61765;DHT22;50188;48.114;-1.388;2022-10-16T03:29:07;15.30;99.90
61765;DHT22;50188;48.114;-1.388;2022-10-16T03:31:33;15.30;99.90
61765;DHT22;50188;48.114;-1.388;2022-10-16T03:33:58;15.40;99.90
61765;DHT22;50188;48.114;-1.388;2022-10-16T03:36:24;15.40;99.90
61765;DHT22;50188;48.114;-1.388;2022-10-16T03:38:49;15.30;99.90
61765;DHT22;50188;48.114;-1.388;2022-10-16T03:41:15;15.30;99.90
61765;DHT22;50188;48.114;-1.388;2022-10-16T03:43:41;15.30;99.90
61765;DHT22;50188;48.114;-1.388;2022-10-16T03:46:06;15.30;99.90
61765;DHT22;50188;48.114;-1.388;2022-10-16T03:48:32;15.30;99.90
61765;DHT22;50188;48.114;-1.388;2022-10-16T03:50:58;15.30;99.90
61765;DHT22;50188;48.114;-1.388;2022-10-16T03:53:24;15.30;99.90
61765;DHT22;50188;48.114;-1.388;2022-10-16T03:55:49;15.30;99.90
61765;DHT22;50188;48.114;-1.388;2022-10-16T03:58:15;15.30;99.90
61765;DHT22;50188;48.114;-1.388;2022-10-16T04:00:45;15.30;99.90
61765;DHT22;50188;48.114;-1.388;2022-10-16T04:03:11;15.30;99.90
61765;DHT22;50188;48.114;-1.388;2022-10-16T04:05:38;15.30;99.90
61765;DHT22;50188;48.114;-1.388;2022-10-16T04:08:04;15.30;99.90
61765;DHT22;50188;48.114;-1.388;2022-10-16T04:10:30;15.30;99.90
61765;DHT22;50188;48.114;-1.388;2022-10-16T04:12:55;15.30;99.90
61765;DHT22;50188;48.114;-1.388;2022-10-16T04:15:22;15.30;99.90
61765;DHT22;50188;48.114;-1.388;2022-10-16T04:17:48;15.30;99.90
61765;DHT22;50188;48.114;-1.388;2022-10-16T04:20:14;15.30;99.90
61765;DHT22;50188;48.114;-1.388;2022-10-16T04:22:40;15.30;99.90
61765;DHT22;50188;48.114;-1.388;2022-10-16T04:25:05;15.40;99.90
61765;DHT22;50188;48.114;-1.388;2022-10-16T04:27:31;15.40;99.90
61765;DHT22;50188;48.114;-1.388;2022-10-16T04:29:58;15.40;99.90
61765;DHT22;50188;48.114;-1.388;2022-10-16T04:32:24;15.40;99.90
61765;DHT22;50188;48.114;-1.388;2022-10-16T04:34:49;15.40;99.90
61765;DHT22;50188;48.114;-1.388;2022-10-16T04:37:15;15.40;99.90
61765;DHT22;50188;48.114;-1.388;2022-10-16T04:39:40;15.40;99.90
61765;DHT22;50188;48.114;-1.388;2022-10-16T04:42:06;15.40;99.90
61765;DHT22;50188;48.114;-1.388;2022-10-16T04:44:31;15.40;99.90
61765;DHT22;50188;48.114;-1.388;2022-10-16T04:46:57;15.40;99.90
61765;DHT22;50188;48.114;-1.388;2022-10-16T04:49:23;15.40;99.90
61765;DHT22;50188;48.114;-1.388;2022-10-16T04:51:48;15.40;99.90
61765;DHT22;50188;48.114;-1.388;2022-10-16T04:54:14;15.40;99.90
61765;DHT22;50188;48.114;-1.388;2022-10-16T04:56:39;15.40;99.90
61765;DHT22;50188;48.114;-1.388;2022-10-16T04:59:12;15.40;99.90
61765;DHT22;50188;48.114;-1.388;2022-10-16T05:01:38;15.40;99.90
61765;DHT22;50188;48.114;-1.388;2022-10-16T05:04:04;15.40;99.90
61765;DHT22;50188;48.114;-1.388;2022-10-16T05:06:29;15.40;99.90
61765;DHT22;50188;48.114;-1.388;2022-10-16T05:08:55;15.40;99.90
61765;DHT22;50188;48.114;-1.388;2022-10-16T05:11:20;15.40;99.90
61765;DHT22;50188;48.114;-1.388;2022-10-16T05:13:46;15.40;99.90
61765;DHT22;50188;48.114;-1.388;2022-10-16T05:16:12;15.40;99.90
61765;DHT22;50188;48.114;-1.388;2022-10-16T05:18:37;15.40;99.90
61765;DHT22;50188;48.114;-1.388;2022-10-16T05:21:03;15.40;99.90
61765;DHT22;50188;48.114;-1.388;2022-10-16T05:23:29;15.40;99.90
61765;DHT22;50188;48.114;-1.388;2022-10-16T05:25:59;15.40;99.90
61765;DHT22;50188;48.114;-1.388;2022-10-16T05:28:26;15.40;99.90
61765;DHT22;50188;48.114;-1.388;2022-10-16T05:30:53;15.30;99.90
61765;DHT22;50188;48.114;-1.388;2022-10-16T05:33:23;15.30;99.90
61765;DHT22;50188;48.114;-1.388;2022-10-16T05:35:49;15.30;99.90
61765;DHT22;50188;48.114;-1.388;2022-10-16T05:38:16;15.30;99.90
61765;DHT22;50188;48.114;-1.388;2022-10-16T05:40:41;15.40;99.90
61765;DHT22;50188;48.114;-1.388;2022-10-16T05:43:07;15.40;99.90
61765;DHT22;50188;48.114;-1.388;2022-10-16T05:45:33;15.40;99.90
61765;DHT22;50188;48.114;-1.388;2022-10-16T05:47:59;15.40;99.90
61765;DHT22;50188;48.114;-1.388;2022-10-16T05:50:25;15.40;99.90
61765;DHT22;50188;48.114;-1.388;2022-10-16T05:52:51;15.40;99.90
61765;DHT22;50188;48.114;-1.388;2022-10-16T05:55:16;15.40;99.90
61765;DHT22;50188;48.114;-1.388;2022-10-16T05:57:42;15.40;99.90
61765;DHT22;50188;48.114;-1.388;2022-10-16T06:00:08;15.40;99.90
61765;DHT22;50188;48.114;-1.388;2022-10-16T06:02:34;15.40;99.90
61765;DHT22;50188;48.114;-1.388;2022-10-16T06:04:59;15.40;99.90
61765;DHT22;50188;48.114;-1.388;2022-10-16T06:07:25;15.40;99.90
61765;DHT22;50188;48.114;-1.388;2022-10-16T06:09:52;15.40;99.90
61765;DHT22;50188;48.114;-1.388;2022-10-16T06:12:18;15.40;99.90
61765;DHT22;50188;48.114;-1.388;2022-10-16T06:14:45;15.40;99.90
61765;DHT22;50188;48.114;-1.388;2022-10-16T06:17:12;15.40;99.90
61765;DHT22;50188;48.114;-1.388;2022-10-16T06:19:39;15.40;99.90
61765;DHT22;50188;48.114;-1.388;2022-10-16T06:22:04;15.30;99.90
61765;DHT22;50188;48.114;-1.388;2022-10-16T06:24:30;15.30;99.90
61765;DHT22;50188;48.114;-1.388;2022-10-16T06:26:55;15.40;99.90
61765;DHT22;50188;48.114;-1.388;2022-10-16T06:29:21;15.30;99.90
61765;DHT22;50188;48.114;-1.388;2022-10-16T06:31:46;15.30;99.90
61765;DHT22;50188;48.114;-1.388;2022-10-16T06:34:12;15.30;99.90
61765;DHT22;50188;48.114;-1.388;2022-10-16T06:36:39;15.30;99.90
61765;DHT22;50188;48.114;-1.388;2022-10-16T06:39:05;15.20;99.90
61765;DHT22;50188;48.114;-1.388;2022-10-16T06:41:33;15.30;99.90
61765;DHT22;50188;48.114;-1.388;2022-10-16T06:43:59;15.30;99.90
61765;DHT22;50188;48.114;-1.388;2022-10-16T06:46:25;15.30;99.90
61765;DHT22;50188;48.114;-1.388;2022-10-16T06:48:51;15.40;99.90
61765;DHT22;50188;48.114;-1.388;2022-10-16T06:51:20;15.40;99.90
61765;DHT22;50188;48.114;-1.388;2022-10-16T06:53:54;15.40;99.90
61765;DHT22;50188;48.114;-1.388;2022-10-16T06:56:24;15.40;99.90
61765;DHT22;50188;48.114;-1.388;2022-10-16T06:58:51;15.40;99.90
61765;DHT22;50188;48.114;-1.388;2022-10-16T07:01:19;15.40;99.90
61765;DHT22;50188;48.114;-1.388;2022-10-16T07:03:46;15.40;99.90
61765;DHT22;50188;48.114;-1.388;2022-10-16T07:06:15;15.50;99.90
61765;DHT22;50188;48.114;-1.388;2022-10-16T07:08:43;15.50;99.90
61765;DHT22;50188;48.114;-1.388;2022-10-16T07:11:11;15.50;99.90
61765;DHT22;50188;48.114;-1.388;2022-10-16T07:13:38;15.50;99.90
61765;DHT22;50188;48.114;-1.388;2022-10-16T07:16:07;15.50;99.90
61765;DHT22;50188;48.114;-1.388;2022-10-16T07:18:32;15.50;99.90
61765;DHT22;50188;48.114;-1.388;2022-10-16T07:21:09;15.50;99.90
61765;DHT22;50188;48.114;-1.388;2022-10-16T07:23:35;15.60;99.90
61765;DHT22;50188;48.114;-1.388;2022-10-16T07:26:02;15.70;99.90
61765;DHT22;50188;48.114;-1.388;2022-10-16T07:28:28;15.70;99.90
61765;DHT22;50188;48.114;-1.388;2022-10-16T07:30:54;15.70;99.90
61765;DHT22;50188;48.114;-1.388;2022-10-16T07:33:20;15.70;99.90
61765;DHT22;50188;48.114;-1.388;2022-10-16T07:35:51;15.80;99.90
61765;DHT22;50188;48.114;-1.388;2022-10-16T07:38:17;15.80;99.90
61765;DHT22;50188;48.114;-1.388;2022-10-16T07:40:43;15.80;99.90
61765;DHT22;50188;48.114;-1.388;2022-10-16T07:43:09;15.90;99.90
61765;DHT22;50188;48.114;-1.388;2022-10-16T07:45:34;15.90;99.90
61765;DHT22;50188;48.114;-1.388;2022-10-16T07:48:00;15.90;99.90
61765;DHT22;50188;48.114;-1.388;2022-10-16T07:50:25;16.00;99.90
61765;DHT22;50188;48.114;-1.388;2022-10-16T07:52:51;16.10;99.90
61765;DHT22;50188;48.114;-1.388;2022-10-16T07:55:17;16.30;99.90
61765;DHT22;50188;48.114;-1.388;2022-10-16T07:57:43;16.40;99.90
61765;DHT22;50188;48.114;-1.388;2022-10-16T08:00:09;16.50;99.90
61765;DHT22;50188;48.114;-1.388;2022-10-16T08:02:39;16.60;99.80
61765;DHT22;50188;48.114;-1.388;2022-10-16T08:05:05;17.00;99.70
61765;DHT22;50188;48.114;-1.388;2022-10-16T08:07:31;17.50;99.00
61765;DHT22;50188;48.114;-1.388;2022-10-16T08:09:57;17.90;97.50
61765;DHT22;50188;48.114;-1.388;2022-10-16T08:12:24;18.00;96.10
61765;DHT22;50188;48.114;-1.388;2022-10-16T08:14:50;17.80;95.30
61765;DHT22;50188;48.114;-1.388;2022-10-16T08:17:15;17.80;95.80
61765;DHT22;50188;48.114;-1.388;2022-10-16T08:19:45;17.80;95.20
61765;DHT22;50188;48.114;-1.388;2022-10-16T08:22:11;17.90;95.50
61765;DHT22;50188;48.114;-1.388;2022-10-16T08:24:36;17.80;95.00
61765;DHT22;50188;48.114;-1.388;2022-10-16T08:27:02;17.90;94.80
61765;DHT22;50188;48.114;-1.388;2022-10-16T08:29:28;17.80;95.20
61765;DHT22;50188;48.114;-1.388;2022-10-16T08:31:54;18.00;95.50
61765;DHT22;50188;48.114;-1.388;2022-10-16T08:34:19;18.20;94.30
61765;DHT22;50188;48.114;-1.388;2022-10-16T08:36:45;18.60;93.90
61765;DHT22;50188;48.114;-1.388;2022-10-16T08:39:10;19.10;92.40
61765;DHT22;50188;48.114;-1.388;2022-10-16T08:42:01;19.30;91.90
61765;DHT22;50188;48.114;-1.388;2022-10-16T08:45:01;19.70;90.20
61765;DHT22;50188;48.114;-1.388;2022-10-16T08:47:44;20.10;90.00
61765;DHT22;50188;48.114;-1.388;2022-10-16T08:50:19;20.30;87.80
61765;DHT22;50188;48.114;-1.388;2022-10-16T08:52:47;20.80;86.20
61765;DHT22;50188;48.114;-1.388;2022-10-16T08:55:34;21.20;82.40
61765;DHT22;50188;48.114;-1.388;2022-10-16T08:58:10;21.40;81.10
61765;DHT22;50188;48.114;-1.388;2022-10-16T09:00:38;21.50;79.20
61765;DHT22;50188;48.114;-1.388;2022-10-16T09:06:29;21.20;77.90
61765;DHT22;50188;48.114;-1.388;2022-10-16T09:09:18;20.60;80.00
61765;DHT22;50188;48.114;-1.388;2022-10-16T09:12:00;20.30;81.70
61765;DHT22;50188;48.114;-1.388;2022-10-16T09:14:47;19.90;82.20
61765;DHT22;50188;48.114;-1.388;2022-10-16T09:17:37;20.00;82.60
61765;DHT22;50188;48.114;-1.388;2022-10-16T09:20:18;20.10;83.30
61765;DHT22;50188;48.114;-1.388;2022-10-16T09:22:44;20.20;83.20
61765;DHT22;50188;48.114;-1.388;2022-10-16T09:25:13;20.20;82.20
61765;DHT22;50188;48.114;-1.388;2022-10-16T09:27:39;20.20;82.00
61765;DHT22;50188;48.114;-1.388;2022-10-16T09:30:13;20.30;82.60
61765;DHT22;50188;48.114;-1.388;2022-10-16T09:32:40;20.30;80.70
61765;DHT22;50188;48.114;-1.388;2022-10-16T09:35:13;20.00;82.10
61765;DHT22;50188;48.114;-1.388;2022-10-16T09:37:41;19.80;81.30
61765;DHT22;50188;48.114;-1.388;2022-10-16T09:40:13;19.90;82.90
61765;DHT22;50188;48.114;-1.388;2022-10-16T09:42:39;20.00;81.40
61765;DHT22;50188;48.114;-1.388;2022-10-16T09:45:05;20.30;81.20
61765;DHT22;50188;48.114;-1.388;2022-10-16T09:47:32;20.20;81.20
61765;DHT22;50188;48.114;-1.388;2022-10-16T09:50:21;20.20;80.80
61765;DHT22;50188;48.114;-1.388;2022-10-16T09:52:47;19.80;80.90
61765;DHT22;50188;48.114;-1.388;2022-10-16T09:55:15;19.40;82.90
61765;DHT22;50188;48.114;-1.388;2022-10-16T09:57:54;19.60;84.10
61765;DHT22;50188;48.114;-1.388;2022-10-16T10:00:22;19.80;83.30
61765;DHT22;50188;48.114;-1.388;2022-10-16T10:02:48;19.90;83.10
61765;DHT22;50188;48.114;-1.388;2022-10-16T10:05:28;19.80;83.80
61765;DHT22;50188;48.114;-1.388;2022-10-16T10:07:57;20.00;82.50
61765;DHT22;50188;48.114;-1.388;2022-10-16T10:10:25;20.00;81.00
61765;DHT22;50188;48.114;-1.388;2022-10-16T10:12:52;20.00;79.70
61765;DHT22;50188;48.114;-1.388;2022-10-16T10:15:18;20.00;79.30
61765;DHT22;50188;48.114;-1.388;2022-10-16T10:17:53;19.90;76.80
61765;DHT22;50188;48.114;-1.388;2022-10-16T10:20:31;19.80;78.20
61765;DHT22;50188;48.114;-1.388;2022-10-16T10:23:13;19.70;78.60
61765;DHT22;50188;48.114;-1.388;2022-10-16T10:26:10;19.70;78.90
61765;DHT22;50188;48.114;-1.388;2022-10-16T10:29:00;19.70;77.30
61765;DHT22;50188;48.114;-1.388;2022-10-16T10:31:48;19.60;75.90
61765;DHT22;50188;48.114;-1.388;2022-10-16T10:34:47;19.60;75.70
61765;DHT22;50188;48.114;-1.388;2022-10-16T10:37:32;19.50;76.10
61765;DHT22;50188;48.114;-1.388;2022-10-16T10:40:08;19.40;76.10
61765;DHT22;50188;48.114;-1.388;2022-10-16T10:42:54;19.30;78.50
61765;DHT22;50188;48.114;-1.388;2022-10-16T10:45:43;19.20;78.40
61765;DHT22;50188;48.114;-1.388;2022-10-16T10:48:38;18.90;78.90
61765;DHT22;50188;48.114;-1.388;2022-10-16T10:51:13;18.90;79.60
61765;DHT22;50188;48.114;-1.388;2022-10-16T10:53:58;18.50;81.20
61765;DHT22;50188;48.114;-1.388;2022-10-16T10:56:47;18.40;81.70
61765;DHT22;50188;48.114;-1.388;2022-10-16T11:02:39;18.40;83.80
61765;DHT22;50188;48.114;-1.388;2022-10-16T11:08:18;18.20;85.10
61765;DHT22;50188;48.114;-1.388;2022-10-16T11:10:53;18.10;86.90
61765;DHT22;50188;48.114;-1.388;2022-10-16T11:13:31;18.10;87.90
61765;DHT22;50188;48.114;-1.388;2022-10-16T11:16:01;18.10;88.20
61765;DHT22;50188;48.114;-1.388;2022-10-16T11:18:49;18.00;88.90
61765;DHT22;50188;48.114;-1.388;2022-10-16T11:21:18;18.10;89.60
61765;DHT22;50188;48.114;-1.388;2022-10-16T11:24:04;18.10;90.20
61765;DHT22;50188;48.114;-1.388;2022-10-16T11:26:38;18.00;91.10
61765;DHT22;50188;48.114;-1.388;2022-10-16T11:29:12;18.00;91.30
61765;DHT22;50188;48.114;-1.388;2022-10-16T11:31:42;17.90;92.30
61765;DHT22;50188;48.114;-1.388;2022-10-16T11:34:30;17.70;92.80
61765;DHT22;50188;48.114;-1.388;2022-10-16T11:37:15;17.70;93.30
61765;DHT22;50188;48.114;-1.388;2022-10-16T11:39:43;17.70;93.70
61765;DHT22;50188;48.114;-1.388;2022-10-16T11:42:22;17.70;93.70
61765;DHT22;50188;48.114;-1.388;2022-10-16T11:45:15;17.70;94.20
61765;DHT22;50188;48.114;-1.388;2022-10-16T11:48:02;17.70;94.50
61765;DHT22;50188;48.114;-1.388;2022-10-16T11:50:43;17.60;95.00
61765;DHT22;50188;48.114;-1.388;2022-10-16T11:53:29;17.60;95.20
61765;DHT22;50188;48.114;-1.388;2022-10-16T11:55:59;17.70;95.40
61765;DHT22;50188;48.114;-1.388;2022-10-16T11:58:39;17.60;95.80
61765;DHT22;50188;48.114;-1.388;2022-10-16T12:01:28;17.50;95.80
61765;DHT22;50188;48.114;-1.388;2022-10-16T12:04:11;17.50;96.10
61765;DHT22;50188;48.114;-1.388;2022-10-16T12:06:57;17.40;96.50
61765;DHT22;50188;48.114;-1.388;2022-10-16T12:09:27;17.40;97.10
61765;DHT22;50188;48.114;-1.388;2022-10-16T12:11:54;17.30;97.10
61765;DHT22;50188;48.114;-1.388;2022-10-16T12:14:36;17.30;97.20
61765;DHT22;50188;48.114;-1.388;2022-10-16T12:17:26;17.40;97.40
61765;DHT22;50188;48.114;-1.388;2022-10-16T12:20:12;17.40;97.40
61765;DHT22;50188;48.114;-1.388;2022-10-16T12:22:52;17.50;97.70
61765;DHT22;50188;48.114;-1.388;2022-10-16T12:25:31;17.50;97.90
61765;DHT22;50188;48.114;-1.388;2022-10-16T12:28:06;17.60;98.30
61765;DHT22;50188;48.114;-1.388;2022-10-16T12:30:43;17.60;97.60
61765;DHT22;50188;48.114;-1.388;2022-10-16T12:33:29;17.70;98.00
61765;DHT22;50188;48.114;-1.388;2022-10-16T12:35:56;17.70;97.70
61765;DHT22;50188;48.114;-1.388;2022-10-16T12:38:27;17.70;98.30
61765;DHT22;50188;48.114;-1.388;2022-10-16T12:41:00;17.80;97.70
61765;DHT22;50188;48.114;-1.388;2022-10-16T12:43:43;17.60;97.60
61765;DHT22;50188;48.114;-1.388;2022-10-16T12:46:23;17.50;97.60
61765;DHT22;50188;48.114;-1.388;2022-10-16T12:48:49;17.70;97.90
61765;DHT22;50188;48.114;-1.388;2022-10-16T12:51:36;17.70;98.10
61765;DHT22;50188;48.114;-1.388;2022-10-16T12:54:14;17.90;97.80
61765;DHT22;50188;48.114;-1.388;2022-10-16T13:00:04;18.10;97.00
61765;DHT22;50188;48.114;-1.388;2022-10-16T13:06:06;18.60;96.70
61765;DHT22;50188;48.114;-1.388;2022-10-16T13:08:52;18.80;96.40
61765;DHT22;50188;48.114;-1.388;2022-10-16T13:11:45;19.00;96.10
61765;DHT22;50188;48.114;-1.388;2022-10-16T13:17:30;19.30;95.10
61765;DHT22;50188;48.114;-1.388;2022-10-16T13:20:21;19.40;94.40
61765;DHT22;50188;48.114;-1.388;2022-10-16T13:23:18;19.40;95.20
61765;DHT22;50188;48.114;-1.388;2022-10-16T13:26:21;19.20;94.80
61765;DHT22;50188;48.114;-1.388;2022-10-16T13:28:49;19.20;95.00
61765;DHT22;50188;48.114;-1.388;2022-10-16T13:31:19;19.40;95.20
61765;DHT22;50188;48.114;-1.388;2022-10-16T13:33:51;19.50;95.00
61765;DHT22;50188;48.114;-1.388;2022-10-16T13:36:23;19.60;94.60
61765;DHT22;50188;48.114;-1.388;2022-10-16T13:39:13;19.60;94.10
61765;DHT22;50188;48.114;-1.388;2022-10-16T13:41:39;19.60;94.10
61765;DHT22;50188;48.114;-1.388;2022-10-16T13:44:13;19.60;94.80
61765;DHT22;50188;48.114;-1.388;2022-10-16T13:46:39;19.60;94.60
61765;DHT22;50188;48.114;-1.388;2022-10-16T13:49:16;19.50;94.90
61765;DHT22;50188;48.114;-1.388;2022-10-16T13:51:57;19.60;94.60
61765;DHT22;50188;48.114;-1.388;2022-10-16T13:54:24;19.60;94.50
61765;DHT22;50188;48.114;-1.388;2022-10-16T13:56:50;19.70;94.50
61765;DHT22;50188;48.114;-1.388;2022-10-16T13:59:25;19.70;94.30
61765;DHT22;50188;48.114;-1.388;2022-10-16T14:01:53;19.80;94.80
61765;DHT22;50188;48.114;-1.388;2022-10-16T14:04:19;19.60;94.10
61765;DHT22;50188;48.114;-1.388;2022-10-16T14:06:48;19.60;94.70
61765;DHT22;50188;48.114;-1.388;2022-10-16T14:09:22;19.70;94.40
61765;DHT22;50188;48.114;-1.388;2022-10-16T14:11:57;19.70;94.30
61765;DHT22;50188;48.114;-1.388;2022-10-16T14:14:24;19.70;95.00
61765;DHT22;50188;48.114;-1.388;2022-10-16T14:16:51;19.60;95.10
61765;DHT22;50188;48.114;-1.388;2022-10-16T14:19:22;19.70;94.70
61765;DHT22;50188;48.114;-1.388;2022-10-16T14:21:53;19.80;95.20
61765;DHT22;50188;48.114;-1.388;2022-10-16T14:24:27;19.80;95.10
61765;DHT22;50188;48.114;-1.388;2022-10-16T14:26:57;19.90;95.10
61765;DHT22;50188;48.114;-1.388;2022-10-16T14:29:24;19.90;94.90
61765;DHT22;50188;48.114;-1.388;2022-10-16T14:32:04;20.00;95.10
61765;DHT22;50188;48.114;-1.388;2022-10-16T14:34:33;20.00;94.90
61765;DHT22;50188;48.114;-1.388;2022-10-16T14:37:23;19.90;94.70
61765;DHT22;50188;48.114;-1.388;2022-10-16T14:39:50;20.00;94.80
61765;DHT22;50188;48.114;-1.388;2022-10-16T14:42:17;19.90;95.40
61765;DHT22;50188;48.114;-1.388;2022-10-16T14:44:44;19.90;95.30
61765;DHT22;50188;48.114;-1.388;2022-10-16T14:47:13;19.90;94.60
61765;DHT22;50188;48.114;-1.388;2022-10-16T14:49:41;19.90;94.50
61765;DHT22;50188;48.114;-1.388;2022-10-16T14:52:11;19.90;94.20
61765;DHT22;50188;48.114;-1.388;2022-10-16T14:54:38;19.90;94.20
61765;DHT22;50188;48.114;-1.388;2022-10-16T14:57:03;19.90;94.60
61765;DHT22;50188;48.114;-1.388;2022-10-16T14:59:38;19.90;94.90
61765;DHT22;50188;48.114;-1.388;2022-10-16T15:02:32;19.90;95.10
61765;DHT22;50188;48.114;-1.388;2022-10-16T15:05:18;20.00;95.10
61765;DHT22;50188;48.114;-1.388;2022-10-16T15:07:44;20.00;95.30
61765;DHT22;50188;48.114;-1.388;2022-10-16T15:10:12;20.00;95.20
61765;DHT22;50188;48.114;-1.388;2022-10-16T15:12:38;20.00;95.30
61765;DHT22;50188;48.114;-1.388;2022-10-16T15:15:32;20.00;95.20
61765;DHT22;50188;48.114;-1.388;2022-10-16T15:17:58;20.00;95.30
61765;DHT22;50188;48.114;-1.388;2022-10-16T15:20:27;20.00;95.20
61765;DHT22;50188;48.114;-1.388;2022-10-16T15:22:53;20.00;95.20
61765;DHT22;50188;48.114;-1.388;2022-10-16T15:25:35;20.00;95.20
61765;DHT22;50188;48.114;-1.388;2022-10-16T15:28:03;20.00;95.00
61765;DHT22;50188;48.114;-1.388;2022-10-16T15:30:29;20.00;95.20
61765;DHT22;50188;48.114;-1.388;2022-10-16T15:32:55;20.00;95.10
61765;DHT22;50188;48.114;-1.388;2022-10-16T15:35:21;20.00;95.20
61765;DHT22;50188;48.114;-1.388;2022-10-16T15:37:47;20.00;95.20
61765;DHT22;50188;48.114;-1.388;2022-10-16T15:40:14;20.00;95.50
61765;DHT22;50188;48.114;-1.388;2022-10-16T15:42:40;20.00;95.20
61765;DHT22;50188;48.114;-1.388;2022-10-16T15:45:06;20.00;95.10
61765;DHT22;50188;48.114;-1.388;2022-10-16T15:47:33;20.00;95.20
61765;DHT22;50188;48.114;-1.388;2022-10-16T15:49:59;19.90;95.10
61765;DHT22;50188;48.114;-1.388;2022-10-16T15:52:24;19.90;95.00
61765;DHT22;50188;48.114;-1.388;2022-10-16T15:54:50;19.90;95.10
61765;DHT22;50188;48.114;-1.388;2022-10-16T15:57:16;19.90;95.00
61765;DHT22;50188;48.114;-1.388;2022-10-16T15:59:41;19.80;94.80